KHOE

Homerville Airport

Homerville, Georgia, USA
METAR KHOE 181515Z AUTO 03005KT 10SM CLR 00/M09 A3046 RMK AO2
Observed Flight Rules
Jan-18 @ 15:15 UTC (15 minutes ago) Visual Flight Rules
Wind Visibility Clouds
30° at 5 knots 10 miles
  • Clear skies
Temperatures Readings
Current 0°C / 32°F
Dewpoint -9°C / 16°F
Humidity 51%
Altimeter 30.46" Hg
Pressure 1031 hPa
Elevation 57
METAR KHOE 181515Z AUTO 03005KT 10SM CLR 00/M09 A3046 RMK AO2
Observed Flight Rules
Jan-18 @ 15:15 UTC
(15 minutes ago)
VFR
Wind Visibility
30° at 5 knots 10 miles
Clouds
  • Clear skies
Temperature Dewpoint
0°C / 32°F -9°C / 16°F
Humidity Altimeter Pressure
51% 30.46" Hg 1031 hPa